sensor_id;sensor_type;location;lat;lon;timestamp;pressure;altitude;pressure_sealevel;temperature;humidity
71126;BME280;58785;55.566;38.058;2023-04-23T00:02:09;100056.56;;;6.37;65.19
71126;BME280;58785;55.566;38.058;2023-04-23T00:04:38;100049.09;;;6.31;65.40
71126;BME280;58785;55.566;38.058;2023-04-23T00:07:05;100052.72;;;6.30;65.36
71126;BME280;58785;55.566;38.058;2023-04-23T00:09:31;100062.34;;;6.31;65.02
71126;BME280;58785;55.566;38.058;2023-04-23T00:12:00;100066.78;;;6.30;65.33
71126;BME280;58785;55.566;38.058;2023-04-23T00:14:27;100066.19;;;6.27;65.40
71126;BME280;58785;55.566;38.058;2023-04-23T00:16:52;100061.16;;;6.24;65.32
71126;BME280;58785;55.566;38.058;2023-04-23T00:19:18;100057.16;;;6.18;65.29
71126;BME280;58785;55.566;38.058;2023-04-23T00:21:45;100066.78;;;6.19;65.30
71126;BME280;58785;55.566;38.058;2023-04-23T00:24:10;100078.22;;;6.20;65.36
71126;BME280;58785;55.566;38.058;2023-04-23T00:26:36;100069.19;;;6.11;65.45
71126;BME280;58785;55.566;38.058;2023-04-23T00:29:02;100063.06;;;6.11;65.31
71126;BME280;58785;55.566;38.058;2023-04-23T00:31:28;100070.16;;;6.10;65.97
71126;BME280;58785;55.566;38.058;2023-04-23T00:33:53;100071.84;;;6.11;65.49
71126;BME280;58785;55.566;38.058;2023-04-23T00:36:20;100071.97;;;6.10;65.40
71126;BME280;58785;55.566;38.058;2023-04-23T00:38:45;100077.63;;;6.05;65.73
71126;BME280;58785;55.566;38.058;2023-04-23T00:41:11;100087.25;;;6.06;65.54
71126;BME280;58785;55.566;38.058;2023-04-23T00:43:37;100087.25;;;6.06;65.47
71126;BME280;58785;55.566;38.058;2023-04-23T00:46:03;100093.53;;;6.05;65.38
71126;BME280;58785;55.566;38.058;2023-04-23T00:48:29;100090.16;;;6.03;65.38
71126;BME280;58785;55.566;38.058;2023-04-23T00:50:59;100085.31;;;5.97;65.62
71126;BME280;58785;55.566;38.058;2023-04-23T00:53:27;100078.78;;;5.90;65.97
71126;BME280;58785;55.566;38.058;2023-04-23T00:55:53;100092.13;;;5.88;66.20
71126;BME280;58785;55.566;38.058;2023-04-23T00:58:19;100090.56;;;5.86;66.10
71126;BME280;58785;55.566;38.058;2023-04-23T01:00:45;100086.25;;;5.85;65.96
71126;BME280;58785;55.566;38.058;2023-04-23T01:03:14;100093.47;;;5.83;65.87
71126;BME280;58785;55.566;38.058;2023-04-23T01:05:42;100104.63;;;5.86;66.29
71126;BME280;58785;55.566;38.058;2023-04-23T01:08:14;100103.09;;;5.84;66.31
71126;BME280;58785;55.566;38.058;2023-04-23T01:10:41;100105.00;;;5.82;65.92
71126;BME280;58785;55.566;38.058;2023-04-23T01:13:08;100107.16;;;5.76;66.38
71126;BME280;58785;55.566;38.058;2023-04-23T01:15:34;100104.38;;;5.78;66.49
71126;BME280;58785;55.566;38.058;2023-04-23T01:17:59;100113.28;;;5.77;66.10
71126;BME280;58785;55.566;38.058;2023-04-23T01:20:26;100105.34;;;5.77;66.56
71126;BME280;58785;55.566;38.058;2023-04-23T01:22:51;100101.25;;;5.73;66.27
71126;BME280;58785;55.566;38.058;2023-04-23T01:25:17;100106.44;;;5.74;66.33
71126;BME280;58785;55.566;38.058;2023-04-23T01:27:43;100105.47;;;5.75;66.67
71126;BME280;58785;55.566;38.058;2023-04-23T01:30:09;100095.47;;;5.68;66.43
71126;BME280;58785;55.566;38.058;2023-04-23T01:32:36;100110.88;;;5.74;66.54
71126;BME280;58785;55.566;38.058;2023-04-23T01:35:02;100098.34;;;5.65;66.73
71126;BME280;58785;55.566;38.058;2023-04-23T01:37:31;100109.66;;;5.67;66.47
71126;BME280;58785;55.566;38.058;2023-04-23T01:39:57;100112.41;;;5.65;66.91
71126;BME280;58785;55.566;38.058;2023-04-23T01:42:23;100115.19;;;5.64;66.63
71126;BME280;58785;55.566;38.058;2023-04-23T01:44:48;100116.88;;;5.65;66.52
71126;BME280;58785;55.566;38.058;2023-04-23T01:47:15;100107.56;;;5.59;66.64
71126;BME280;58785;55.566;38.058;2023-04-23T01:49:40;100121.44;;;5.63;66.67
71126;BME280;58785;55.566;38.058;2023-04-23T01:52:06;100115.38;;;5.61;66.56
71126;BME280;58785;55.566;38.058;2023-04-23T01:54:32;100117.31;;;5.59;66.66
71126;BME280;58785;55.566;38.058;2023-04-23T01:56:57;100116.34;;;5.60;66.90
71126;BME280;58785;55.566;38.058;2023-04-23T01:59:23;100120.81;;;5.59;66.92
71126;BME280;58785;55.566;38.058;2023-04-23T02:01:49;100115.63;;;5.58;67.19
71126;BME280;58785;55.566;38.058;2023-04-23T02:04:16;100122.59;;;5.59;67.01
71126;BME280;58785;55.566;38.058;2023-04-23T02:06:43;100119.34;;;5.55;66.73
71126;BME280;58785;55.566;38.058;2023-04-23T02:09:09;100114.19;;;5.54;67.22
71126;BME280;58785;55.566;38.058;2023-04-23T02:11:36;100128.72;;;5.59;67.14
71126;BME280;58785;55.566;38.058;2023-04-23T02:14:03;100133.06;;;5.60;66.99
71126;BME280;58785;55.566;38.058;2023-04-23T02:16:29;100122.00;;;5.55;67.26
71126;BME280;58785;55.566;38.058;2023-04-23T02:18:55;100130.94;;;5.65;66.89
71126;BME280;58785;55.566;38.058;2023-04-23T02:21:24;100125.88;;;5.62;67.00
71126;BME280;58785;55.566;38.058;2023-04-23T02:23:51;100129.72;;;5.69;66.86
71126;BME280;58785;55.566;38.058;2023-04-23T02:26:17;100135.41;;;5.76;67.10
71126;BME280;58785;55.566;38.058;2023-04-23T02:28:44;100133.75;;;5.86;67.09
71126;BME280;58785;55.566;38.058;2023-04-23T02:31:10;100138.50;;;5.94;66.88
71126;BME280;58785;55.566;38.058;2023-04-23T02:33:35;100125.16;;;5.95;66.50
71126;BME280;58785;55.566;38.058;2023-04-23T02:36:01;100138.66;;;6.15;66.70
71126;BME280;58785;55.566;38.058;2023-04-23T02:38:27;100145.03;;;6.34;66.31
71126;BME280;58785;55.566;38.058;2023-04-23T02:40:52;100138.78;;;6.58;66.08
71126;BME280;58785;55.566;38.058;2023-04-23T02:43:18;100142.84;;;6.84;65.31
71126;BME280;58785;55.566;38.058;2023-04-23T02:45:43;100147.13;;;7.08;65.42
71126;BME280;58785;55.566;38.058;2023-04-23T02:48:10;100135.88;;;7.27;65.58
71126;BME280;58785;55.566;38.058;2023-04-23T02:50:36;100143.75;;;7.49;64.87
71126;BME280;58785;55.566;38.058;2023-04-23T02:53:04;100148.22;;;7.69;65.11
71126;BME280;58785;55.566;38.058;2023-04-23T02:55:32;100141.84;;;7.93;65.04
71126;BME280;58785;55.566;38.058;2023-04-23T02:57:58;100145.91;;;8.18;64.49
71126;BME280;58785;55.566;38.058;2023-04-23T03:00:25;100156.41;;;8.40;64.05
71126;BME280;58785;55.566;38.058;2023-04-23T03:02:51;100154.09;;;8.56;63.98
71126;BME280;58785;55.566;38.058;2023-04-23T03:05:17;100163.00;;;8.76;63.78
71126;BME280;58785;55.566;38.058;2023-04-23T03:07:42;100162.38;;;8.93;63.21
71126;BME280;58785;55.566;38.058;2023-04-23T03:10:08;100160.72;;;9.12;62.82
71126;BME280;58785;55.566;38.058;2023-04-23T03:12:34;100158.34;;;9.28;62.40
71126;BME280;58785;55.566;38.058;2023-04-23T03:15:00;100166.66;;;9.54;61.87
71126;BME280;58785;55.566;38.058;2023-04-23T03:17:25;100165.09;;;9.71;61.58
71126;BME280;58785;55.566;38.058;2023-04-23T03:19:51;100167.75;;;9.90;61.11
71126;BME280;58785;55.566;38.058;2023-04-23T03:22:17;100178.13;;;10.13;61.05
71126;BME280;58785;55.566;38.058;2023-04-23T03:24:43;100170.16;;;10.22;60.20
71126;BME280;58785;55.566;38.058;2023-04-23T03:27:08;100189.28;;;10.45;60.03
71126;BME280;58785;55.566;38.058;2023-04-23T03:29:34;100174.09;;;10.55;59.80
71126;BME280;58785;55.566;38.058;2023-04-23T03:32:00;100193.69;;;10.74;59.05
71126;BME280;58785;55.566;38.058;2023-04-23T03:34:26;100189.53;;;10.89;58.91
71126;BME280;58785;55.566;38.058;2023-04-23T03:36:52;100189.91;;;11.04;59.23
71126;BME280;58785;55.566;38.058;2023-04-23T03:39:17;100196.09;;;11.22;57.97
71126;BME280;58785;55.566;38.058;2023-04-23T03:41:43;100191.09;;;11.37;57.95
71126;BME280;58785;55.566;38.058;2023-04-23T03:44:09;100184.25;;;11.52;57.66
71126;BME280;58785;55.566;38.058;2023-04-23T03:46:34;100201.84;;;11.72;58.15
71126;BME280;58785;55.566;38.058;2023-04-23T03:49:00;100201.31;;;11.87;57.44
71126;BME280;58785;55.566;38.058;2023-04-23T03:51:26;100192.72;;;12.01;57.57
71126;BME280;58785;55.566;38.058;2023-04-23T03:53:52;100207.91;;;12.18;56.81
71126;BME280;58785;55.566;38.058;2023-04-23T03:56:18;100202.31;;;12.29;56.18
71126;BME280;58785;55.566;38.058;2023-04-23T03:58:43;100204.06;;;12.38;55.61
71126;BME280;58785;55.566;38.058;2023-04-23T04:01:09;100207.69;;;12.55;55.67
71126;BME280;58785;55.566;38.058;2023-04-23T04:03:35;100210.09;;;12.66;54.95
71126;BME280;58785;55.566;38.058;2023-04-23T04:06:01;100209.66;;;12.79;55.17
71126;BME280;58785;55.566;38.058;2023-04-23T04:08:27;100210.91;;;12.93;54.82
71126;BME280;58785;55.566;38.058;2023-04-23T04:10:54;100209.94;;;13.10;54.28
71126;BME280;58785;55.566;38.058;2023-04-23T04:13:20;100218.44;;;13.23;53.89
71126;BME280;58785;55.566;38.058;2023-04-23T04:15:46;100214.59;;;13.34;53.88
71126;BME280;58785;55.566;38.058;2023-04-23T04:18:12;100221.84;;;13.50;53.48
71126;BME280;58785;55.566;38.058;2023-04-23T04:20:37;100221.72;;;13.68;52.99
71126;BME280;58785;55.566;38.058;2023-04-23T04:23:03;100214.53;;;13.76;52.72
71126;BME280;58785;55.566;38.058;2023-04-23T04:25:29;100220.91;;;13.84;52.88
71126;BME280;58785;55.566;38.058;2023-04-23T04:27:54;100224.09;;;13.95;52.40
71126;BME280;58785;55.566;38.058;2023-04-23T04:30:23;100217.41;;;13.99;52.53
71126;BME280;58785;55.566;38.058;2023-04-23T04:32:48;100215.72;;;14.06;52.33
71126;BME280;58785;55.566;38.058;2023-04-23T04:35:15;100224.28;;;14.26;52.11
71126;BME280;58785;55.566;38.058;2023-04-23T04:37:41;100223.13;;;14.53;51.49
71126;BME280;58785;55.566;38.058;2023-04-23T04:40:08;100223.06;;;14.70;51.00
71126;BME280;58785;55.566;38.058;2023-04-23T04:42:36;100220.53;;;14.84;50.94
71126;BME280;58785;55.566;38.058;2023-04-23T04:45:04;100218.81;;;14.91;50.83
71126;BME280;58785;55.566;38.058;2023-04-23T04:47:30;100228.94;;;15.20;50.32
71126;BME280;58785;55.566;38.058;2023-04-23T04:49:57;100226.16;;;15.45;49.85
71126;BME280;58785;55.566;38.058;2023-04-23T04:52:24;100234.81;;;15.63;49.83
71126;BME280;58785;55.566;38.058;2023-04-23T04:54:49;100232.38;;;15.76;49.38
71126;BME280;58785;55.566;38.058;2023-04-23T04:57:15;100232.63;;;15.90;49.28
71126;BME280;58785;55.566;38.058;2023-04-23T04:59:41;100241.03;;;16.09;49.06
71126;BME280;58785;55.566;38.058;2023-04-23T05:02:07;100246.63;;;16.23;48.83
71126;BME280;58785;55.566;38.058;2023-04-23T05:04:32;100240.47;;;16.37;48.65
71126;BME280;58785;55.566;38.058;2023-04-23T05:06:58;100245.34;;;16.56;48.21
71126;BME280;58785;55.566;38.058;2023-04-23T05:09:24;100244.03;;;16.75;48.02
71126;BME280;58785;55.566;38.058;2023-04-23T05:11:50;100237.06;;;16.95;47.62
71126;BME280;58785;55.566;38.058;2023-04-23T05:14:16;100242.44;;;17.25;47.24
71126;BME280;58785;55.566;38.058;2023-04-23T05:16:41;100245.25;;;17.53;46.81
71126;BME280;58785;55.566;38.058;2023-04-23T05:19:07;100248.97;;;17.67;46.17
71126;BME280;58785;55.566;38.058;2023-04-23T05:21:33;100246.25;;;17.81;45.80
71126;BME280;58785;55.566;38.058;2023-04-23T05:23:58;100253.50;;;18.02;45.46
71126;BME280;58785;55.566;38.058;2023-04-23T05:26:24;100256.06;;;18.32;44.84
71126;BME280;58785;55.566;38.058;2023-04-23T05:28:49;100251.53;;;18.60;44.34
71126;BME280;58785;55.566;38.058;2023-04-23T05:31:15;100246.38;;;18.93;43.60
71126;BME280;58785;55.566;38.058;2023-04-23T05:33:41;100255.53;;;19.27;42.97
71126;BME280;58785;55.566;38.058;2023-04-23T05:36:09;100240.72;;;19.58;42.16
71126;BME280;58785;55.566;38.058;2023-04-23T05:38:35;100252.25;;;19.86;41.89
71126;BME280;58785;55.566;38.058;2023-04-23T05:41:00;100250.66;;;20.18;41.45
71126;BME280;58785;55.566;38.058;2023-04-23T05:43:26;100250.47;;;20.53;41.00
71126;BME280;58785;55.566;38.058;2023-04-23T05:45:52;100254.41;;;20.63;40.61
71126;BME280;58785;55.566;38.058;2023-04-23T05:48:18;100246.28;;;20.17;41.36
71126;BME280;58785;55.566;38.058;2023-04-23T05:50:43;100257.81;;;19.71;41.94
71126;BME280;58785;55.566;38.058;2023-04-23T05:53:09;100261.41;;;19.37;42.20
71126;BME280;58785;55.566;38.058;2023-04-23T05:55:35;100264.56;;;19.06;42.16
71126;BME280;58785;55.566;38.058;2023-04-23T05:58:01;100272.44;;;19.01;42.57
71126;BME280;58785;55.566;38.058;2023-04-23T06:00:27;100267.03;;;19.42;41.83
71126;BME280;58785;55.566;38.058;2023-04-23T06:02:53;100263.69;;;19.81;41.36
71126;BME280;58785;55.566;38.058;2023-04-23T06:05:18;100261.44;;;20.12;41.12
71126;BME280;58785;55.566;38.058;2023-04-23T06:07:44;100268.81;;;20.44;40.63
71126;BME280;58785;55.566;38.058;2023-04-23T06:10:10;100267.13;;;20.63;40.64
71126;BME280;58785;55.566;38.058;2023-04-23T06:12:37;100264.84;;;20.80;39.96
71126;BME280;58785;55.566;38.058;2023-04-23T06:15:07;100266.69;;;20.92;39.55
71126;BME280;58785;55.566;38.058;2023-04-23T06:17:34;100267.09;;;21.09;39.08
71126;BME280;58785;55.566;38.058;2023-04-23T06:20:00;100272.47;;;21.22;39.11
71126;BME280;58785;55.566;38.058;2023-04-23T06:22:26;100264.97;;;21.31;38.93
71126;BME280;58785;55.566;38.058;2023-04-23T06:24:52;100277.44;;;21.45;38.65
71126;BME280;58785;55.566;38.058;2023-04-23T06:27:17;100267.81;;;21.49;38.21
71126;BME280;58785;55.566;38.058;2023-04-23T06:29:43;100270.75;;;21.48;38.05
71126;BME280;58785;55.566;38.058;2023-04-23T06:32:08;100280.31;;;21.57;37.76
71126;BME280;58785;55.566;38.058;2023-04-23T06:34:35;100274.06;;;21.57;37.71
71126;BME280;58785;55.566;38.058;2023-04-23T06:37:00;100286.75;;;21.63;37.35
71126;BME280;58785;55.566;38.058;2023-04-23T06:39:26;100282.81;;;21.59;37.92
71126;BME280;58785;55.566;38.058;2023-04-23T06:41:52;100274.44;;;21.67;37.63
71126;BME280;58785;55.566;38.058;2023-04-23T06:44:17;100281.00;;;21.84;36.76
71126;BME280;58785;55.566;38.058;2023-04-23T06:46:43;100285.13;;;22.00;36.58
71126;BME280;58785;55.566;38.058;2023-04-23T06:49:09;100272.38;;;22.00;36.44
71126;BME280;58785;55.566;38.058;2023-04-23T06:51:35;100282.66;;;21.92;36.54
71126;BME280;58785;55.566;38.058;2023-04-23T06:54:01;100279.06;;;21.98;36.61
71126;BME280;58785;55.566;38.058;2023-04-23T06:56:26;100291.00;;;21.97;36.50
71126;BME280;58785;55.566;38.058;2023-04-23T06:58:52;100295.25;;;21.79;36.67
71126;BME280;58785;55.566;38.058;2023-04-23T07:01:18;100277.41;;;21.59;36.44
71126;BME280;58785;55.566;38.058;2023-04-23T07:03:43;100276.19;;;21.48;36.36
71126;BME280;58785;55.566;38.058;2023-04-23T07:06:14;100292.84;;;21.51;36.39
71126;BME280;58785;55.566;38.058;2023-04-23T07:08:41;100297.00;;;21.67;36.33
71126;BME280;58785;55.566;38.058;2023-04-23T07:11:06;100296.66;;;21.89;36.18
71126;BME280;58785;55.566;38.058;2023-04-23T07:13:32;100293.03;;;22.01;35.96
71126;BME280;58785;55.566;38.058;2023-04-23T07:15:58;100293.41;;;22.18;35.84
71126;BME280;58785;55.566;38.058;2023-04-23T07:18:23;100284.31;;;22.31;35.73
71126;BME280;58785;55.566;38.058;2023-04-23T07:20:49;100296.78;;;22.45;35.51
71126;BME280;58785;55.566;38.058;2023-04-23T07:23:15;100294.81;;;22.52;35.09
71126;BME280;58785;55.566;38.058;2023-04-23T07:25:41;100289.47;;;22.46;35.45
71126;BME280;58785;55.566;38.058;2023-04-23T07:28:07;100291.28;;;22.52;35.31
71126;BME280;58785;55.566;38.058;2023-04-23T07:30:32;100291.47;;;22.57;34.75
71126;BME280;58785;55.566;38.058;2023-04-23T07:32:58;100288.56;;;22.52;35.09
71126;BME280;58785;55.566;38.058;2023-04-23T07:35:24;100291.50;;;22.19;35.02
71126;BME280;58785;55.566;38.058;2023-04-23T07:37:51;100285.47;;;21.72;35.31
71126;BME280;58785;55.566;38.058;2023-04-23T07:40:21;100295.41;;;21.40;35.64
71126;BME280;58785;55.566;38.058;2023-04-23T07:42:47;100289.97;;;21.40;35.62
71126;BME280;58785;55.566;38.058;2023-04-23T07:45:13;100290.97;;;21.59;35.40
71126;BME280;58785;55.566;38.058;2023-04-23T07:47:38;100296.84;;;21.42;35.18
71126;BME280;58785;55.566;38.058;2023-04-23T07:50:04;100298.19;;;21.07;35.20
71126;BME280;58785;55.566;38.058;2023-04-23T07:52:30;100298.19;;;20.74;35.05
71126;BME280;58785;55.566;38.058;2023-04-23T07:54:56;100293.84;;;20.46;35.39
71126;BME280;58785;55.566;38.058;2023-04-23T07:57:22;100296.97;;;20.56;35.58
71126;BME280;58785;55.566;38.058;2023-04-23T07:59:48;100293.00;;;20.79;35.09
71126;BME280;58785;55.566;38.058;2023-04-23T08:02:14;100294.66;;;20.66;34.42
71126;BME280;58785;55.566;38.058;2023-04-23T08:04:39;100293.41;;;20.49;34.83
71126;BME280;58785;55.566;38.058;2023-04-23T08:07:05;100294.84;;;20.38;35.02
71126;BME280;58785;55.566;38.058;2023-04-23T08:09:31;100295.88;;;20.37;35.06
71126;BME280;58785;55.566;38.058;2023-04-23T08:11:56;100292.78;;;20.54;34.68
71126;BME280;58785;55.566;38.058;2023-04-23T08:14:22;100291.75;;;20.55;34.63
71126;BME280;58785;55.566;38.058;2023-04-23T08:16:48;100284.66;;;20.60;34.83
71126;BME280;58785;55.566;38.058;2023-04-23T08:19:13;100291.72;;;20.81;34.60
71126;BME280;58785;55.566;38.058;2023-04-23T08:21:39;100285.25;;;20.82;34.15
71126;BME280;58785;55.566;38.058;2023-04-23T08:24:05;100290.50;;;20.77;34.30
71126;BME280;58785;55.566;38.058;2023-04-23T08:26:33;100291.13;;;20.66;34.54
71126;BME280;58785;55.566;38.058;2023-04-23T08:28:59;100284.47;;;20.55;34.63
71126;BME280;58785;55.566;38.058;2023-04-23T08:31:25;100292.78;;;20.60;34.34
71126;BME280;58785;55.566;38.058;2023-04-23T08:33:51;100289.88;;;20.55;34.12
71126;BME280;58785;55.566;38.058;2023-04-23T08:36:17;100288.78;;;20.36;33.83
71126;BME280;58785;55.566;38.058;2023-04-23T08:38:42;100288.34;;;20.20;33.70
71126;BME280;58785;55.566;38.058;2023-04-23T08:41:09;100286.66;;;20.12;33.49
71126;BME280;58785;55.566;38.058;2023-04-23T08:44:17;100287.91;;;20.09;33.30
71126;BME280;58785;55.566;38.058;2023-04-23T08:46:43;100267.50;;;20.20;33.26
71126;BME280;58785;55.566;38.058;2023-04-23T08:49:16;100276.09;;;20.37;33.59
71126;BME280;58785;55.566;38.058;2023-04-23T08:51:48;100276.75;;;20.65;33.38
71126;BME280;58785;55.566;38.058;2023-04-23T08:54:20;100273.19;;;20.52;33.25
71126;BME280;58785;55.566;38.058;2023-04-23T08:56:46;100274.81;;;20.33;33.79
71126;BME280;58785;55.566;38.058;2023-04-23T08:59:12;100282.13;;;20.26;34.08
71126;BME280;58785;55.566;38.058;2023-04-23T09:01:40;100277.31;;;20.21;34.24
71126;BME280;58785;55.566;38.058;2023-04-23T09:04:06;100279.19;;;20.27;34.17
71126;BME280;58785;55.566;38.058;2023-04-23T09:06:33;100270.69;;;20.44;34.34
71126;BME280;58785;55.566;38.058;2023-04-23T09:08:59;100270.06;;;20.61;34.34
71126;BME280;58785;55.566;38.058;2023-04-23T09:11:26;100271.09;;;20.80;34.57
71126;BME280;58785;55.566;38.058;2023-04-23T09:13:55;100273.81;;;20.80;34.20
71126;BME280;58785;55.566;38.058;2023-04-23T09:16:21;100269.25;;;20.67;34.42
71126;BME280;58785;55.566;38.058;2023-04-23T09:18:46;100266.31;;;20.43;34.78
71126;BME280;58785;55.566;38.058;2023-04-23T09:21:14;100266.03;;;20.11;34.51
71126;BME280;58785;55.566;38.058;2023-04-23T09:23:39;100261.97;;;19.74;34.73
71126;BME280;58785;55.566;38.058;2023-04-23T09:26:06;100264.16;;;19.50;34.82
71126;BME280;58785;55.566;38.058;2023-04-23T09:28:35;100269.94;;;19.34;35.05
71126;BME280;58785;55.566;38.058;2023-04-23T09:31:04;100265.28;;;19.21;35.10
71126;BME280;58785;55.566;38.058;2023-04-23T09:33:33;100255.84;;;19.11;35.31
71126;BME280;58785;55.566;38.058;2023-04-23T09:36:07;100255.19;;;19.02;35.33
71126;BME280;58785;55.566;38.058;2023-04-23T09:38:34;100251.91;;;19.07;35.34
71126;BME280;58785;55.566;38.058;2023-04-23T09:41:22;100254.34;;;19.36;35.10
71126;BME280;58785;55.566;38.058;2023-04-23T09:43:48;100262.28;;;19.51;34.96
71126;BME280;58785;55.566;38.058;2023-04-23T09:46:13;100247.59;;;19.60;35.29
71126;BME280;58785;55.566;38.058;2023-04-23T09:48:40;100261.78;;;19.69;35.16
71126;BME280;58785;55.566;38.058;2023-04-23T09:51:07;100257.00;;;19.64;35.36
71126;BME280;58785;55.566;38.058;2023-04-23T09:53:42;100254.69;;;19.68;35.17
71126;BME280;58785;55.566;38.058;2023-04-23T09:56:08;100247.81;;;19.65;34.86
71126;BME280;58785;55.566;38.058;2023-04-23T09:58:34;100260.53;;;19.65;34.82
71126;BME280;58785;55.566;38.058;2023-04-23T10:01:07;100246.34;;;19.56;34.21
71126;BME280;58785;55.566;38.058;2023-04-23T10:03:33;100241.16;;;19.20;34.25
71126;BME280;58785;55.566;38.058;2023-04-23T10:05:59;100247.34;;;19.14;34.69
71126;BME280;58785;55.566;38.058;2023-04-23T10:08:26;100244.88;;;19.19;35.22
71126;BME280;58785;55.566;38.058;2023-04-23T10:10:52;100243.44;;;19.23;35.29
71126;BME280;58785;55.566;38.058;2023-04-23T10:13:17;100242.81;;;19.21;35.62
71126;BME280;58785;55.566;38.058;2023-04-23T10:15:45;100242.59;;;19.22;35.66
71126;BME280;58785;55.566;38.058;2023-04-23T10:18:15;100247.06;;;19.37;35.62
71126;BME280;58785;55.566;38.058;2023-04-23T10:20:40;100245.94;;;19.59;35.34
71126;BME280;58785;55.566;38.058;2023-04-23T10:23:08;100242.84;;;19.69;34.72
71126;BME280;58785;55.566;38.058;2023-04-23T10:25:38;100242.03;;;19.81;34.93
71126;BME280;58785;55.566;38.058;2023-04-23T10:28:05;100240.41;;;20.00;35.10
71126;BME280;58785;55.566;38.058;2023-04-23T10:30:34;100243.53;;;20.10;35.03
71126;BME280;58785;55.566;38.058;2023-04-23T10:33:01;100247.53;;;20.15;34.97
71126;BME280;58785;55.566;38.058;2023-04-23T10:35:28;100242.31;;;20.20;35.30
71126;BME280;58785;55.566;38.058;2023-04-23T10:37:54;100240.00;;;20.23;35.24
71126;BME280;58785;55.566;38.058;2023-04-23T10:40:31;100242.31;;;20.26;34.72
71126;BME280;58785;55.566;38.058;2023-04-23T10:42:58;100236.69;;;20.28;35.03
71126;BME280;58785;55.566;38.058;2023-04-23T10:45:29;100238.56;;;20.27;35.01
71126;BME280;58785;55.566;38.058;2023-04-23T10:47:57;100240.00;;;20.23;35.08
71126;BME280;58785;55.566;38.058;2023-04-23T10:50:25;100249.59;;;20.19;35.25
71126;BME280;58785;55.566;38.058;2023-04-23T10:52:52;100243.56;;;20.17;35.05
71126;BME280;58785;55.566;38.058;2023-04-23T10:55:22;100236.69;;;20.15;34.92
71126;BME280;58785;55.566;38.058;2023-04-23T10:57:58;100233.75;;;20.03;34.61
71126;BME280;58785;55.566;38.058;2023-04-23T11:00:25;100229.56;;;20.00;35.32
71126;BME280;58785;55.566;38.058;2023-04-23T11:02:51;100229.38;;;20.02;35.12
71126;BME280;58785;55.566;38.058;2023-04-23T11:05:17;100218.94;;;19.92;34.66
71126;BME280;58785;55.566;38.058;2023-04-23T11:08:03;100218.94;;;19.79;34.33
71126;BME280;58785;55.566;38.058;2023-04-23T11:10:30;100214.97;;;19.75;34.72
71126;BME280;58785;55.566;38.058;2023-04-23T11:12:56;100211.63;;;19.79;35.46
71126;BME280;58785;55.566;38.058;2023-04-23T11:15:22;100222.31;;;19.94;34.97
71126;BME280;58785;55.566;38.058;2023-04-23T11:20:18;100216.03;;;19.87;34.63
71126;BME280;58785;55.566;38.058;2023-04-23T11:22:48;100190.81;;;19.80;34.47
71126;BME280;58785;55.566;38.058;2023-04-23T11:25:20;100208.72;;;19.74;34.62
71126;BME280;58785;55.566;38.058;2023-04-23T11:27:48;100199.50;;;19.62;34.48
71126;BME280;58785;55.566;38.058;2023-04-23T11:30:14;100204.44;;;19.52;34.62
71126;BME280;58785;55.566;38.058;2023-04-23T11:32:43;100212.16;;;19.48;34.42
71126;BME280;58785;55.566;38.058;2023-04-23T11:35:11;100205.94;;;19.55;34.67
71126;BME280;58785;55.566;38.058;2023-04-23T11:37:39;100214.72;;;19.70;34.50
71126;BME280;58785;55.566;38.058;2023-04-23T11:40:09;100207.25;;;19.72;34.60
71126;BME280;58785;55.566;38.058;2023-04-23T11:43:01;100212.06;;;19.83;34.39
71126;BME280;58785;55.566;38.058;2023-04-23T11:45:28;100205.41;;;19.86;34.50
71126;BME280;58785;55.566;38.058;2023-04-23T11:47:56;100208.94;;;19.86;34.48
71126;BME280;58785;55.566;38.058;2023-04-23T11:50:25;100201.84;;;19.72;34.45
71126;BME280;58785;55.566;38.058;2023-04-23T11:52:51;100195.56;;;19.58;34.76
71126;BME280;58785;55.566;38.058;2023-04-23T11:55:18;100186.13;;;19.47;34.68
71126;BME280;58785;55.566;38.058;2023-04-23T11:57:48;100202.00;;;19.57;34.66
71126;BME280;58785;55.566;38.058;2023-04-23T12:00:17;100195.75;;;19.63;34.38
71126;BME280;58785;55.566;38.058;2023-04-23T12:05:32;100188.31;;;19.65;34.66
71126;BME280;58785;55.566;38.058;2023-04-23T12:08:18;100194.13;;;19.69;34.64
71126;BME280;58785;55.566;38.058;2023-04-23T12:10:52;100186.66;;;19.64;34.55
71126;BME280;58785;55.566;38.058;2023-04-23T12:13:20;100187.88;;;19.68;34.43
71126;BME280;58785;55.566;38.058;2023-04-23T12:15:52;100190.38;;;19.70;34.40
71126;BME280;58785;55.566;38.058;2023-04-23T12:18:37;100184.78;;;19.65;34.72
71126;BME280;58785;55.566;38.058;2023-04-23T12:21:09;100194.31;;;19.61;34.59
71126;BME280;58785;55.566;38.058;2023-04-23T12:23:36;100177.88;;;19.62;34.69
71126;BME280;58785;55.566;38.058;2023-04-23T12:26:02;100182.06;;;19.65;34.26
71126;BME280;58785;55.566;38.058;2023-04-23T12:28:29;100177.03;;;19.62;34.38
71126;BME280;58785;55.566;38.058;2023-04-23T12:31:00;100171.25;;;19.65;34.39
71126;BME280;58785;55.566;38.058;2023-04-23T12:33:30;100177.47;;;19.65;34.43
71126;BME280;58785;55.566;38.058;2023-04-23T12:35:56;100182.47;;;19.68;34.40
71126;BME280;58785;55.566;38.058;2023-04-23T12:38:28;100184.56;;;19.66;34.50
71126;BME280;58785;55.566;38.058;2023-04-23T12:40:56;100176.66;;;19.65;34.43
71126;BME280;58785;55.566;38.058;2023-04-23T12:43:24;100178.09;;;19.67;34.31
71126;BME280;58785;55.566;38.058;2023-04-23T12:45:50;100170.63;;;19.69;34.27
71126;BME280;58785;55.566;38.058;2023-04-23T12:48:16;100169.38;;;19.65;34.27